createdAt,value
2022-10-01T00:10:21.869Z,12.69
2022-10-01T00:30:21.842Z,12.52
2022-10-01T01:10:21.779Z,12.09
2022-10-01T01:30:21.737Z,11.55
2022-10-01T01:50:21.719Z,11.26
2022-10-01T02:10:21.691Z,11.03
2022-10-01T02:30:21.657Z,10.89
2022-10-01T02:50:21.624Z,10.76
2022-10-01T03:30:21.571Z,10.67
2022-10-01T03:50:21.540Z,10.62
2022-10-01T04:10:21.511Z,10.58
2022-10-01T04:30:21.510Z,10.59
2022-10-01T04:50:21.451Z,10.69
2022-10-01T05:10:21.423Z,10.81
2022-10-01T05:30:21.445Z,10.89
2022-10-01T05:50:21.361Z,10.96
2022-10-01T06:10:21.333Z,10.94
2022-10-01T06:50:21.272Z,11.09
2022-10-01T07:10:21.239Z,11.22
2022-10-01T07:30:21.217Z,11.31
2022-10-01T08:10:21.153Z,11.7
2022-10-01T08:30:21.155Z,12.18
2022-10-01T09:10:21.060Z,13.06
2022-10-01T09:30:21.029Z,13.62
2022-10-01T09:50:21.002Z,13.75
2022-10-01T10:30:20.940Z,14.16
2022-10-01T11:10:20.899Z,14.99
2022-10-01T11:30:20.836Z,15.45
2022-10-01T11:50:20.814Z,15.25
2022-10-01T12:30:20.759Z,12.67
2022-10-01T12:50:20.704Z,13
2022-10-01T13:10:20.664Z,13.09
2022-10-01T13:30:20.649Z,13.37
2022-10-01T13:50:20.611Z,13.5
2022-10-01T14:10:20.577Z,13.82
2022-10-01T14:30:20.563Z,14.32
2022-10-01T14:50:20.512Z,14.37
2022-10-01T15:30:20.437Z,14.83
2022-10-01T15:50:20.411Z,14.76
2022-10-01T16:10:20.374Z,14.66
2022-10-01T17:30:20.266Z,13.54
2022-10-01T17:50:20.213Z,13.52
2022-10-01T18:10:20.184Z,13.57
2022-10-01T18:30:20.163Z,13.28
2022-10-01T19:30:20.052Z,12.96
2022-10-01T20:10:19.995Z,12.45
2022-10-01T21:10:19.908Z,11.66
2022-10-01T21:30:19.871Z,11.67
2022-10-01T21:50:19.844Z,11.58
2022-10-01T22:10:19.805Z,11.52
2022-10-01T22:30:19.782Z,11.52
2022-10-01T22:50:19.757Z,11.52
2022-10-01T23:50:19.670Z,11.54
